Time;durP1;ratioP1;P1;durP2;ratioP2;P2;SDS_P1;SDS_P2;PMS_P1;PMS_P2;Temp;Humidity;BMP_temperature;BMP_pressure;BME280_temperature;BME280_humidity;BME280_pressure;Samples;Min_cycle;Max_cycle;Signal;HPM_P1;HPM_P2
2021/09/13 00:02:02;;;;;;;1.23;0.20;;;16.20;99.90;;;;;;5055597;28;20231;-66
2021/09/13 00:04:27;;;;;;;0.40;0.20;;;16.10;99.90;;;;;;5055755;28;20216;-67
2021/09/13 00:06:53;;;;;;;0.40;0.20;;;16.20;99.90;;;;;;5055115;28;20243;-67
2021/09/13 00:09:18;;;;;;;19.83;1.43;;;16.20;99.90;;;;;;5055444;28;20180;-66
2021/09/13 00:11:44;;;;;;;0.40;0.20;;;16.20;99.90;;;;;;5055570;28;20489;-66
2021/09/13 00:14:10;;;;;;;0.40;0.23;;;16.20;99.90;;;;;;5055379;28;20258;-66
2021/09/13 00:16:35;;;;;;;0.50;0.30;;;16.20;99.90;;;;;;5055324;28;20602;-66
2021/09/13 00:19:01;;;;;;;0.40;0.20;;;16.10;99.90;;;;;;5055144;28;20423;-66
2021/09/13 00:21:26;;;;;;;0.40;0.20;;;16.20;99.90;;;;;;5054301;28;20515;-66
2021/09/13 00:23:52;;;;;;;0.40;0.20;;;16.30;99.90;;;;;;5055163;28;20192;-66
2021/09/13 00:26:18;;;;;;;0.40;0.20;;;16.30;99.90;;;;;;5055163;28;20181;-67
2021/09/13 00:28:43;;;;;;;0.40;0.20;;;16.30;99.90;;;;;;5054978;28;20234;-67
2021/09/13 00:31:09;;;;;;;1.73;0.87;;;16.40;99.90;;;;;;5055017;28;20210;-67
2021/09/13 00:33:34;;;;;;;0.40;0.20;;;16.20;99.90;;;;;;5055154;28;20177;-67
2021/09/13 00:36:01;;;;;;;0.40;0.10;;;16.30;99.90;;;;;;5054904;28;20887;-66
2021/09/13 00:38:27;;;;;;;0.40;0.40;;;16.30;99.90;;;;;;5054709;28;20559;-67
2021/09/13 00:40:52;;;;;;;0.40;0.20;;;16.40;99.90;;;;;;5054915;28;20442;-67
2021/09/13 00:43:18;;;;;;;0.40;0.10;;;16.30;99.90;;;;;;5054893;28;20507;-66
2021/09/13 00:45:43;;;;;;;2.93;0.30;;;16.40;99.90;;;;;;5055222;28;20262;-67
2021/09/13 00:48:09;;;;;;;0.60;0.40;;;16.30;99.90;;;;;;5054516;28;20227;-67
2021/09/13 00:50:35;;;;;;;1.00;0.70;;;16.20;99.90;;;;;;5054554;28;20591;-66
2021/09/13 00:53:00;;;;;;;0.47;0.17;;;16.20;99.90;;;;;;5053907;28;20188;-66
2021/09/13 00:55:26;;;;;;;1.03;0.93;;;16.20;99.90;;;;;;5054486;28;20189;-66
2021/09/13 00:57:54;;;;;;;0.40;0.30;;;16.10;99.90;;;;;;5053527;28;20184;-66
2021/09/13 01:00:20;;;;;;;0.60;0.60;;;16.10;99.90;;;;;;5054510;28;20283;-66
2021/09/13 01:02:46;;;;;;;0.70;0.30;;;16.00;99.90;;;;;;5054575;28;20501;-66
2021/09/13 01:05:12;;;;;;;0.40;0.10;;;16.00;99.90;;;;;;5054225;28;20204;-66
2021/09/13 01:07:39;;;;;;;0.40;0.20;;;16.00;99.90;;;;;;5054496;28;20181;-66
2021/09/13 01:10:06;;;;;;;0.60;0.60;;;16.00;99.90;;;;;;5054156;28;20753;-66
2021/09/13 01:12:32;;;;;;;0.40;0.20;;;15.90;99.90;;;;;;5054508;28;20185;-66
2021/09/13 01:14:58;;;;;;;0.40;0.20;;;15.90;99.90;;;;;;5054247;28;20269;-66
2021/09/13 01:17:23;;;;;;;0.40;0.20;;;15.90;99.90;;;;;;5054166;28;20242;-66
2021/09/13 01:19:49;;;;;;;0.50;0.40;;;16.00;99.90;;;;;;5053252;28;20191;-66
2021/09/13 01:22:18;;;;;;;0.40;0.20;;;16.10;99.90;;;;;;5054174;28;20177;-66
2021/09/13 01:24:44;;;;;;;0.40;0.10;;;16.00;99.90;;;;;;5054081;28;20215;-66
2021/09/13 01:27:11;;;;;;;0.40;0.20;;;16.00;99.90;;;;;;5054261;28;20500;-66
2021/09/13 01:29:38;;;;;;;0.40;0.20;;;16.00;99.90;;;;;;5052986;28;20753;-66
2021/09/13 01:32:04;;;;;;;0.40;0.30;;;16.20;99.90;;;;;;5053985;28;20896;-66
2021/09/13 01:34:30;;;;;;;0.50;0.33;;;16.20;99.90;;;;;;5053814;28;20204;-66
2021/09/13 01:36:56;;;;;;;0.60;0.30;;;16.00;99.90;;;;;;5053928;28;20455;-66
2021/09/13 01:39:22;;;;;;;0.30;0.20;;;16.00;99.90;;;;;;5053860;28;20271;-67
2021/09/13 01:41:48;;;;;;;0.40;0.10;;;16.00;99.90;;;;;;5053883;28;20196;-66
2021/09/13 01:44:15;;;;;;;0.50;0.50;;;16.00;99.90;;;;;;5053115;28;20281;-66
2021/09/13 01:46:41;;;;;;;0.40;0.40;;;16.00;99.90;;;;;;5053609;28;20420;-66
2021/09/13 01:49:08;;;;;;;0.40;0.20;;;15.90;99.90;;;;;;5053767;28;20289;-66
2021/09/13 01:51:33;;;;;;;0.40;0.20;;;16.20;99.90;;;;;;5053897;28;20343;-66
2021/09/13 01:53:59;;;;;;;0.40;0.20;;;16.30;99.90;;;;;;5053274;28;20627;-67
2021/09/13 01:56:26;;;;;;;0.40;0.20;;;16.40;99.90;;;;;;5053929;28;20177;-67
2021/09/13 01:58:52;;;;;;;0.40;0.20;;;16.30;99.90;;;;;;5053655;28;20451;-66
2021/09/13 02:01:18;;;;;;;0.37;0.20;;;16.30;99.90;;;;;;5053821;28;20423;-68
2021/09/13 02:03:44;;;;;;;0.40;0.30;;;16.40;99.90;;;;;;5053694;28;20169;-66
2021/09/13 02:06:09;;;;;;;0.70;0.40;;;16.40;99.90;;;;;;5053498;28;20226;-66
2021/09/13 02:08:35;;;;;;;0.40;0.20;;;16.40;99.90;;;;;;5053358;28;20497;-66
2021/09/13 02:11:01;;;;;;;1.90;1.70;;;16.30;99.90;;;;;;5053632;28;20177;-69
2021/09/13 02:13:26;;;;;;;0.50;0.40;;;16.40;99.90;;;;;;5053612;28;20268;-67
2021/09/13 02:15:52;;;;;;;2.77;1.23;;;16.30;99.90;;;;;;5053448;28;20516;-67
2021/09/13 02:18:17;;;;;;;0.40;0.20;;;16.20;99.90;;;;;;5052220;28;20184;-68
2021/09/13 02:20:43;;;;;;;1.57;0.80;;;16.20;99.90;;;;;;5053415;28;20219;-68
2021/09/13 02:23:08;;;;;;;0.40;0.10;;;16.30;99.90;;;;;;5053506;28;20191;-67
2021/09/13 02:25:34;;;;;;;0.40;0.20;;;16.20;99.90;;;;;;5053226;28;20196;-67
2021/09/13 02:27:59;;;;;;;0.40;0.20;;;16.20;99.90;;;;;;5053233;28;20230;-67
2021/09/13 02:30:25;;;;;;;0.80;0.80;;;16.20;99.90;;;;;;5055044;28;20188;-67
2021/09/13 02:32:50;;;;;;;0.40;0.20;;;16.20;99.90;;;;;;5057314;28;20622;-67
2021/09/13 02:35:16;;;;;;;0.70;0.67;;;16.30;99.90;;;;;;5057197;28;20617;-67
2021/09/13 02:37:42;;;;;;;0.50;0.40;;;16.30;99.90;;;;;;5057105;28;20200;-67
2021/09/13 02:40:08;;;;;;;3.30;1.40;;;16.30;99.90;;;;;;5056991;28;20590;-67
2021/09/13 02:42:34;;;;;;;0.50;0.47;;;16.30;99.90;;;;;;5056979;28;20806;-67
2021/09/13 02:45:00;;;;;;;0.40;0.20;;;16.40;99.90;;;;;;5057006;28;20240;-67
2021/09/13 02:47:25;;;;;;;0.40;0.20;;;16.30;99.90;;;;;;5056861;28;20903;-67
2021/09/13 02:49:51;;;;;;;0.40;0.20;;;16.30;99.90;;;;;;5056842;28;20422;-67
2021/09/13 02:52:17;;;;;;;0.40;0.20;;;16.30;99.90;;;;;;5055951;28;20177;-67
2021/09/13 02:54:42;;;;;;;0.90;0.50;;;16.30;99.90;;;;;;5056913;28;20313;-67
2021/09/13 02:57:08;;;;;;;0.40;0.20;;;16.40;99.90;;;;;;5056709;28;20265;-67
2021/09/13 02:59:34;;;;;;;0.60;0.60;;;16.40;99.90;;;;;;5056675;28;20196;-67
2021/09/13 03:01:59;;;;;;;0.60;0.60;;;16.40;99.90;;;;;;5056795;28;20562;-67
2021/09/13 03:04:25;;;;;;;0.40;0.20;;;16.40;99.90;;;;;;5056756;28;20204;-67
2021/09/13 03:06:53;;;;;;;0.77;0.63;;;16.30;99.90;;;;;;5056657;28;20177;-66
2021/09/13 03:09:19;;;;;;;1.37;1.27;;;16.40;99.90;;;;;;5055501;28;20185;-66
2021/09/13 03:11:45;;;;;;;0.40;0.20;;;16.20;99.90;;;;;;5056523;28;20439;-65
2021/09/13 03:14:11;;;;;;;0.80;0.80;;;16.20;99.90;;;;;;5056591;28;20438;-67
2021/09/13 03:16:37;;;;;;;1.00;0.50;;;15.90;99.90;;;;;;5056523;28;20204;-66
2021/09/13 03:19:02;;;;;;;0.67;0.67;;;16.00;99.90;;;;;;5056326;28;20187;-66
2021/09/13 03:21:28;;;;;;;0.50;0.30;;;16.00;99.90;;;;;;5056596;28;20188;-67
2021/09/13 03:23:54;;;;;;;3.90;2.50;;;16.10;99.90;;;;;;5056595;28;20614;-66
2021/09/13 03:26:20;;;;;;;0.30;0.20;;;16.00;99.90;;;;;;5056373;28;20230;-66
2021/09/13 03:28:45;;;;;;;0.30;0.20;;;16.10;99.90;;;;;;5056175;28;20415;-66
2021/09/13 03:31:11;;;;;;;0.47;0.33;;;16.20;99.90;;;;;;5056231;28;20415;-67
2021/09/13 03:33:36;;;;;;;0.40;0.20;;;16.20;99.90;;;;;;5056111;28;20173;-67
2021/09/13 03:36:03;;;;;;;0.37;0.20;;;16.20;99.90;;;;;;5055080;28;20285;-66
2021/09/13 03:38:28;;;;;;;0.50;0.50;;;16.20;99.90;;;;;;5055851;28;20184;-66
2021/09/13 03:40:54;;;;;;;0.40;0.20;;;16.30;99.90;;;;;;5055671;28;20489;-67
2021/09/13 03:43:19;;;;;;;0.30;0.20;;;16.40;99.90;;;;;;5055459;28;20613;-66
2021/09/13 03:45:45;;;;;;;0.40;0.20;;;16.40;99.90;;;;;;5056005;28;20237;-67
2021/09/13 03:48:10;;;;;;;0.33;0.20;;;16.40;99.90;;;;;;5055705;28;20216;-67
2021/09/13 03:50:39;;;;;;;0.40;0.30;;;16.40;99.90;;;;;;5055823;28;20208;-67
2021/09/13 03:53:05;;;;;;;0.40;0.22;;;16.40;99.90;;;;;;5055777;28;20649;-67
2021/09/13 03:55:32;;;;;;;0.40;0.20;;;16.30;99.90;;;;;;5055713;28;20220;-67
2021/09/13 03:57:57;;;;;;;0.40;0.20;;;16.30;99.90;;;;;;5055490;28;20540;-67
2021/09/13 04:00:23;;;;;;;0.40;0.20;;;16.30;99.90;;;;;;5055923;28;20442;-67
2021/09/13 04:02:49;;;;;;;0.30;0.30;;;16.20;99.90;;;;;;5055557;28;20207;-67
2021/09/13 04:05:21;;;;;;;0.30;0.20;;;16.20;99.90;;;;;;5055579;28;20219;-66
2021/09/13 04:10:24;;;;;;;0.40;0.20;;;16.20;99.90;;;;;;5055436;28;20494;-67
2021/09/13 04:12:50;;;;;;;0.40;0.20;;;16.10;99.90;;;;;;5055548;28;20184;-66
2021/09/13 04:15:16;;;;;;;0.57;0.37;;;16.00;99.90;;;;;;5055802;28;20180;-67
2021/09/13 04:17:42;;;;;;;0.40;0.20;;;16.00;99.90;;;;;;5055515;28;20192;-67
2021/09/13 04:20:08;;;;;;;0.37;0.20;;;16.00;99.90;;;;;;5055259;28;20526;-66
2021/09/13 04:22:34;;;;;;;0.63;0.63;;;16.10;99.90;;;;;;5055174;28;20441;-66
2021/09/13 04:25:00;;;;;;;0.40;0.20;;;16.10;99.90;;;;;;5055141;28;20201;-66
2021/09/13 04:27:26;;;;;;;0.37;0.20;;;16.00;99.90;;;;;;5054989;28;20212;-66
2021/09/13 04:29:52;;;;;;;0.40;0.20;;;16.20;99.90;;;;;;5055023;28;20416;-66
2021/09/13 04:32:18;;;;;;;0.68;0.68;;;16.10;99.90;;;;;;5055572;28;20177;-67
2021/09/13 04:34:44;;;;;;;0.30;0.20;;;16.10;99.90;;;;;;5055076;28;20184;-67
2021/09/13 04:37:10;;;;;;;0.40;0.20;;;16.00;99.90;;;;;;5054004;28;20435;-66
2021/09/13 04:39:36;;;;;;;1.07;1.00;;;16.20;99.90;;;;;;5054906;28;20741;-67
2021/09/13 04:42:01;;;;;;;0.40;0.20;;;16.10;99.90;;;;;;5055274;28;20256;-66
2021/09/13 04:44:27;;;;;;;0.37;0.20;;;16.20;99.90;;;;;;5054680;28;20588;-66
2021/09/13 04:46:52;;;;;;;0.30;0.10;;;16.10;99.90;;;;;;5055181;28;20315;-66
2021/09/13 04:49:18;;;;;;;0.40;0.20;;;16.20;99.90;;;;;;5054785;28;20238;-66
2021/09/13 04:51:43;;;;;;;0.40;0.20;;;16.30;99.90;;;;;;5054762;28;20544;-67
2021/09/13 04:54:09;;;;;;;0.70;0.20;;;16.10;99.90;;;;;;5053751;28;20513;-66
2021/09/13 04:56:34;;;;;;;0.43;0.23;;;15.90;99.90;;;;;;5054536;28;20248;-66
2021/09/13 04:59:00;;;;;;;0.40;0.20;;;16.00;99.90;;;;;;5054588;28;20547;-66
2021/09/13 05:01:26;;;;;;;1.50;1.03;;;16.00;99.90;;;;;;5054427;28;20180;-67
2021/09/13 05:03:51;;;;;;;1.13;1.13;;;16.10;99.90;;;;;;5054320;28;20177;-66
2021/09/13 05:06:18;;;;;;;0.40;0.20;;;16.20;99.90;;;;;;5054160;28;20554;-67
2021/09/13 05:08:43;;;;;;;5.65;5.25;;;16.20;99.90;;;;;;5054208;28;20173;-66
2021/09/13 05:11:09;;;;;;;0.33;0.20;;;16.20;99.90;;;;;;5054624;28;20259;-66
2021/09/13 05:13:34;;;;;;;0.40;0.10;;;16.10;99.90;;;;;;5054441;28;20191;-66
2021/09/13 05:16:00;;;;;;;1.03;1.03;;;16.20;99.90;;;;;;5054895;28;20177;-66
2021/09/13 05:18:25;;;;;;;0.40;0.20;;;16.30;99.90;;;;;;5054376;28;20181;-66
2021/09/13 05:20:51;;;;;;;0.40;0.10;;;16.40;99.90;;;;;;5054239;28;20185;-66
2021/09/13 05:23:16;;;;;;;0.40;0.20;;;16.30;99.90;;;;;;5054215;28;20260;-66
2021/09/13 05:25:42;;;;;;;0.40;0.40;;;16.30;99.90;;;;;;5054224;28;20548;-66
2021/09/13 05:28:08;;;;;;;0.40;0.30;;;16.30;99.90;;;;;;5053724;28;20656;-66
2021/09/13 05:30:33;;;;;;;0.40;0.20;;;16.40;99.90;;;;;;5053785;28;20183;-66
2021/09/13 05:32:59;;;;;;;0.30;0.20;;;16.40;99.90;;;;;;5053782;28;20178;-66
2021/09/13 05:35:25;;;;;;;0.40;0.20;;;16.50;99.90;;;;;;5053808;28;20180;-66
2021/09/13 05:37:50;;;;;;;0.40;0.40;;;16.40;99.90;;;;;;5053648;28;20207;-67
2021/09/13 05:40:16;;;;;;;0.40;0.20;;;16.60;99.90;;;;;;5053452;28;20181;-66
2021/09/13 05:42:41;;;;;;;0.40;0.20;;;16.60;99.90;;;;;;5053906;28;20184;-66
2021/09/13 05:45:08;;;;;;;0.40;0.20;;;16.60;99.90;;;;;;5053560;28;20277;-66
2021/09/13 05:47:33;;;;;;;0.50;0.40;;;16.70;99.90;;;;;;5052340;28;20181;-66
2021/09/13 05:49:59;;;;;;;1.37;1.10;;;16.70;99.90;;;;;;5053365;28;20423;-66
2021/09/13 05:52:25;;;;;;;0.50;0.33;;;16.90;99.90;;;;;;5053415;28;20172;-66
2021/09/13 05:54:51;;;;;;;0.40;0.17;;;16.90;99.90;;;;;;5053553;28;20771;-66
2021/09/13 05:57:17;;;;;;;0.47;0.40;;;16.90;99.90;;;;;;5053306;28;20568;-66
2021/09/13 05:59:43;;;;;;;0.40;0.30;;;16.90;99.90;;;;;;5053080;28;20196;-66
2021/09/13 06:02:08;;;;;;;0.40;0.20;;;17.00;99.90;;;;;;5053483;28;20423;-67
2021/09/13 06:04:34;;;;;;;0.97;0.40;;;17.10;99.90;;;;;;5052831;28;20558;-67
2021/09/13 06:07:00;;;;;;;1.03;0.93;;;17.20;99.90;;;;;;5052765;28;20188;-66
2021/09/13 06:09:26;;;;;;;0.40;0.20;;;17.10;99.90;;;;;;5053175;28;20514;-66
2021/09/13 06:11:51;;;;;;;0.40;0.23;;;16.90;99.90;;;;;;5053517;28;20423;-67
2021/09/13 06:14:17;;;;;;;0.87;0.87;;;17.00;99.90;;;;;;5053176;28;20244;-66
2021/09/13 06:16:44;;;;;;;0.40;0.20;;;17.10;99.90;;;;;;5053086;28;20205;-66
2021/09/13 06:19:09;;;;;;;0.40;0.20;;;17.10;99.90;;;;;;5053097;28;20227;-66
2021/09/13 06:21:36;;;;;;;0.50;0.40;;;17.20;99.90;;;;;;5052971;28;20427;-66
2021/09/13 06:24:02;;;;;;;0.40;0.20;;;17.30;99.90;;;;;;5053159;28;20638;-67
2021/09/13 06:26:27;;;;;;;0.40;0.10;;;17.30;99.90;;;;;;5053397;28;20811;-66
2021/09/13 06:28:53;;;;;;;0.60;0.40;;;17.60;99.90;;;;;;5053247;28;20430;-67
2021/09/13 06:31:19;;;;;;;1.80;1.70;;;17.60;99.90;;;;;;5053204;28;20177;-67
2021/09/13 06:33:44;;;;;;;0.70;0.63;;;17.70;99.90;;;;;;5053340;28;20241;-67
2021/09/13 06:36:10;;;;;;;0.40;0.20;;;17.70;99.90;;;;;;5053208;28;20185;-67
2021/09/13 06:38:36;;;;;;;0.40;0.20;;;18.00;99.90;;;;;;5049426;28;20523;-67
2021/09/13 06:41:01;;;;;;;0.40;0.20;;;18.10;99.90;;;;;;5051831;28;20187;-67
2021/09/13 06:43:28;;;;;;;0.40;0.20;;;18.10;99.90;;;;;;5053052;28;20598;-67
2021/09/13 06:46:10;;;;;;;0.50;0.30;;;18.20;99.90;;;;;;5050667;28;20209;-67
2021/09/13 06:48:38;;;;;;;0.43;0.27;;;17.90;99.90;;;;;;5049167;28;20445;-67
2021/09/13 06:51:03;;;;;;;0.40;0.20;;;17.80;99.90;;;;;;5052954;28;20827;-67
2021/09/13 06:53:29;;;;;;;0.50;0.30;;;17.60;99.90;;;;;;5052891;28;20506;-67
2021/09/13 06:55:54;;;;;;;0.40;0.20;;;17.50;99.90;;;;;;5053475;28;20490;-67
2021/09/13 06:58:20;;;;;;;0.40;0.20;;;17.30;99.90;;;;;;5052483;28;20201;-67
2021/09/13 07:00:46;;;;;;;0.40;0.10;;;17.40;99.90;;;;;;5045741;28;20189;-72
2021/09/13 07:03:15;;;;;;;0.40;0.20;;;17.60;99.90;;;;;;5051545;28;20193;-67
2021/09/13 07:05:41;;;;;;;0.50;0.40;;;17.90;99.90;;;;;;5052511;28;20471;-67
2021/09/13 07:08:06;;;;;;;0.40;0.20;;;17.70;99.90;;;;;;5047792;28;20439;-69
2021/09/13 07:10:32;;;;;;;1.73;0.40;;;17.70;99.90;;;;;;5048137;28;20181;-68
2021/09/13 07:12:58;;;;;;;0.40;0.20;;;17.60;99.90;;;;;;5052616;28;20189;-67
2021/09/13 07:15:23;;;;;;;0.60;0.47;;;17.60;99.90;;;;;;5053005;28;20511;-67
2021/09/13 07:17:49;;;;;;;0.40;0.20;;;17.60;99.90;;;;;;5055297;28;20191;-68
2021/09/13 07:20:15;;;;;;;0.40;0.20;;;17.50;99.90;;;;;;5056260;28;20256;-69
2021/09/13 07:22:42;;;;;;;0.40;0.20;;;17.70;99.90;;;;;;5056284;28;20204;-68
2021/09/13 07:25:08;;;;;;;0.40;0.10;;;17.80;99.90;;;;;;5056093;28;20201;-69
2021/09/13 07:27:34;;;;;;;0.40;0.20;;;18.20;99.90;;;;;;5056026;28;20427;-68
2021/09/13 07:30:01;;;;;;;0.40;0.20;;;17.80;99.90;;;;;;5055863;28;20969;-69
2021/09/13 07:32:28;;;;;;;0.50;0.20;;;18.10;99.90;;;;;;5056431;28;20427;-68
2021/09/13 07:34:54;;;;;;;0.40;0.20;;;18.20;46.90;;;;;;5056183;28;20918;-71
2021/09/13 07:37:19;;;;;;;0.40;0.20;;;18.00;65.90;;;;;;5056299;28;20431;-67
2021/09/13 07:39:45;;;;;;;0.40;0.20;;;18.30;71.10;;;;;;5056093;28;20177;-69
2021/09/13 07:42:10;;;;;;;0.70;0.37;;;17.90;99.90;;;;;;5054935;28;20188;-68
2021/09/13 07:44:36;;;;;;;0.40;0.20;;;17.90;1.00;;;;;;5055809;28;20228;-69
2021/09/13 07:47:02;;;;;;;0.40;0.20;;;17.60;1.00;;;;;;5055496;28;20513;-68
2021/09/13 07:49:28;;;;;;;0.50;0.20;;;17.60;1.00;;;;;;5054860;28;20192;-68
2021/09/13 07:51:53;;;;;;;0.63;0.63;;;17.10;33.60;;;;;;5055656;28;20957;-68
2021/09/13 07:54:20;;;;;;;2.10;1.70;;;16.90;26.00;;;;;;5055678;28;20169;-67
2021/09/13 07:56:45;;;;;;;0.40;0.20;;;17.10;99.90;;;;;;5055490;28;20188;-66
2021/09/13 07:59:11;;;;;;;8.53;1.17;;;17.40;1.00;;;;;;5055710;28;20443;-75
2021/09/13 08:01:37;;;;;;;0.40;0.20;;;17.50;1.00;;;;;;5055806;28;20173;-67
2021/09/13 08:04:03;;;;;;;0.40;0.20;;;17.70;1.00;;;;;;5055661;28;20197;-67
2021/09/13 08:06:29;;;;;;;0.47;0.20;;;18.20;1.00;;;;;;5055467;28;20538;-68
2021/09/13 08:08:54;;;;;;;0.40;0.20;;;18.30;1.00;;;;;;5054204;28;20434;-67
2021/09/13 08:11:20;;;;;;;0.40;0.20;;;18.20;1.00;;;;;;5055652;28;20612;-67
2021/09/13 08:13:46;;;;;;;0.40;0.23;;;18.50;1.00;;;;;;5055090;28;20322;-66
2021/09/13 08:16:12;;;;;;;0.40;0.10;;;18.80;99.90;;;;;;5055452;28;20605;-69
2021/09/13 08:18:38;;;;;;;0.50;0.40;;;19.10;99.90;;;;;;5054694;28;20496;-66
2021/09/13 08:21:05;;;;;;;0.50;0.27;;;18.80;99.90;;;;;;5055132;28;20454;-66
2021/09/13 08:23:34;;;;;;;0.57;0.40;;;17.90;1.00;;;;;;5055235;28;20419;-66
2021/09/13 08:26:05;;;;;;;0.50;0.30;;;17.40;1.00;;;;;;5049743;28;20646;-65
2021/09/13 08:28:30;;;;;;;0.40;0.10;;;17.20;1.00;;;;;;5043437;28;20431;-67
2021/09/13 08:30:56;;;;;;;0.60;0.20;;;17.10;23.30;;;;;;5044335;28;20769;-67
2021/09/13 08:33:22;;;;;;;0.40;0.20;;;17.00;12.70;;;;;;5045463;28;20239;-69
2021/09/13 08:35:48;;;;;;;0.40;0.17;;;16.90;1.00;;;;;;5042943;28;20442;-65
2021/09/13 08:38:14;;;;;;;0.50;0.40;;;16.90;14.40;;;;;;5044046;28;20177;-69
2021/09/13 08:40:40;;;;;;;0.40;0.20;;;17.10;1.00;;;;;;5043236;28;20435;-68
2021/09/13 08:43:06;;;;;;;0.40;0.20;;;17.30;1.00;;;;;;5043866;28;20428;-72
2021/09/13 08:53:00;;;;;;;0.40;0.20;;;17.40;1.00;;;;;;5039041;28;20432;-69
2021/09/13 08:55:26;;;;;;;0.40;0.20;;;18.00;1.00;;;;;;5045186;28;20184;-71
2021/09/13 08:57:52;;;;;;;2.60;0.70;;;18.20;1.00;;;;;;5043379;28;20438;-70
2021/09/13 09:00:19;;;;;;;0.50;0.20;;;18.40;1.00;;;;;;5041091;28;20423;-70
2021/09/13 09:02:46;;;;;;;0.50;0.30;;;18.40;1.00;;;;;;5038523;28;20826;-66
2021/09/13 09:05:12;;;;;;;0.40;0.20;;;18.20;1.00;;;;;;5042957;28;20464;-70
2021/09/13 09:07:51;;;;;;;0.40;0.20;;;18.00;1.00;;;;;;5044105;28;20907;-65
2021/09/13 09:10:23;;;;;;;0.40;0.20;;;18.30;99.90;;;;;;5044589;28;20452;-65
2021/09/13 09:13:18;;;;;;;1.63;1.53;;;18.80;99.90;;;;;;5042348;28;20435;-65
2021/09/13 09:16:15;;;;;;;0.40;0.20;;;19.30;1.00;;;;;;5031886;28;20452;-67
2021/09/13 09:18:46;;;;;;;2.53;2.43;;;19.20;99.90;;;;;;5039394;28;20502;-66
2021/09/13 09:21:26;;;;;;;0.60;0.50;;;19.50;1.00;;;;;;5043951;28;20443;-66
2021/09/13 09:24:03;;;;;;;0.40;0.20;;;19.50;99.90;;;;;;5047750;28;20943;-65
2021/09/13 09:26:30;;;;;;;0.40;0.13;;;19.40;99.90;;;;;;5032462;28;20482;-65
2021/09/13 09:28:58;;;;;;;1.53;0.67;;;19.00;1.00;;;;;;5049882;28;20779;-65
2021/09/13 09:31:40;;;;;;;0.40;0.30;;;18.70;1.00;;;;;;5053862;28;20485;-65
2021/09/13 09:34:14;;;;;;;0.40;0.20;;;18.40;92.00;;;;;;5053755;28;20454;-66
2021/09/13 09:36:40;;;;;;;0.40;0.20;;;18.20;99.90;;;;;;5053350;28;20431;-65
2021/09/13 09:39:13;;;;;;;0.40;0.17;;;18.60;99.90;;;;;;5051968;28;20423;-65
2021/09/13 09:41:43;;;;;;;0.40;0.20;;;18.80;1.00;;;;;;5053739;28;20206;-65
2021/09/13 09:44:10;;;;;;;0.43;0.20;;;18.90;1.00;;;;;;5053924;28;20423;-66
2021/09/13 09:46:41;;;;;;;0.60;0.40;;;19.40;99.90;;;;;;5053364;28;20572;-65
2021/09/13 09:49:11;;;;;;;0.40;0.20;;;19.20;1.00;;;;;;5053421;28;20431;-65
2021/09/13 09:51:40;;;;;;;0.53;0.43;;;19.50;1.00;;;;;;5052564;28;20546;-65
2021/09/13 09:54:18;;;;;;;0.40;0.20;;;19.20;1.00;;;;;;5053366;28;20427;-65
2021/09/13 09:56:55;;;;;;;0.40;0.10;;;18.90;99.90;;;;;;5053368;28;20510;-66
2021/09/13 09:59:21;;;;;;;0.40;0.20;;;19.10;99.90;;;;;;5052572;28;20512;-66
2021/09/13 10:01:48;;;;;;;0.40;0.20;;;18.80;99.90;;;;;;5053028;28;20423;-65
2021/09/13 10:04:22;;;;;;;0.70;0.70;;;18.90;99.90;;;;;;5053478;28;20184;-66
2021/09/13 10:06:50;;;;;;;0.40;0.10;;;18.70;1.00;;;;;;5053346;28;20507;-65
2021/09/13 10:09:16;;;;;;;0.40;0.20;;;19.20;1.00;;;;;;5053151;28;20435;-65
2021/09/13 10:11:44;;;;;;;0.40;0.20;;;19.20;99.90;;;;;;5053652;28;20419;-66
2021/09/13 10:14:18;;;;;;;0.40;0.20;;;19.80;1.00;;;;;;5052483;28;20784;-66
2021/09/13 10:16:45;;;;;;;0.40;0.20;;;19.50;1.00;;;;;;5053031;28;20495;-65
2021/09/13 10:19:11;;;;;;;0.40;0.20;;;19.10;1.00;;;;;;5053014;28;20496;-66
2021/09/13 10:21:37;;;;;;;0.40;0.20;;;19.50;1.00;;;;;;5053171;28;20480;-65
2021/09/13 10:24:07;;;;;;;0.40;0.20;;;20.10;99.90;;;;;;5053168;28;20880;-65
2021/09/13 10:26:35;;;;;;;0.40;0.20;;;19.80;51.70;;;;;;5053018;28;20471;-65
2021/09/13 10:29:03;;;;;;;0.40;0.20;;;19.10;99.90;;;;;;5053120;28;20477;-65
2021/09/13 10:31:41;;;;;;;0.40;0.20;;;19.20;1.00;;;;;;5052923;28;20423;-65
2021/09/13 10:34:24;;;;;;;1.70;1.13;;;19.70;1.00;;;;;;5052920;28;20419;-66
2021/09/13 10:37:02;;;;;;;0.50;0.23;;;20.00;1.00;;;;;;5052778;28;20423;-66
2021/09/13 10:39:46;;;;;;;0.40;0.20;;;19.70;1.00;;;;;;5049216;28;20771;-69
2021/09/13 10:42:26;;;;;;;0.40;0.20;;;19.50;1.00;;;;;;5049907;28;20443;-69
2021/09/13 10:45:02;;;;;;;0.40;0.20;;;20.00;99.90;;;;;;5052382;28;20565;-70
2021/09/13 10:47:28;;;;;;;0.40;0.20;;;19.50;1.00;;;;;;5045479;28;20462;-71
2021/09/13 10:50:31;;;;;;;0.50;0.40;;;19.30;99.90;;;;;;5046776;28;20980;-70
2021/09/13 10:52:57;;;;;;;0.70;0.70;;;18.70;99.90;;;;;;5049044;28;20811;-69
2021/09/13 10:55:44;;;;;;;0.70;0.60;;;18.80;60.50;;;;;;5057143;28;20438;-67
2021/09/13 10:58:14;;;;;;;0.50;0.20;;;18.90;99.90;;;;;;5052464;28;20475;-68
2021/09/13 11:00:39;;;;;;;1.90;0.87;;;19.00;79.20;;;;;;5056904;28;20578;-68
2021/09/13 11:03:23;;;;;;;0.40;0.20;;;18.90;1.00;;;;;;5056097;28;20757;-68
2021/09/13 11:06:04;;;;;;;0.40;0.20;;;19.00;1.00;;;;;;5056213;28;20211;-66
2021/09/13 11:08:30;;;;;;;0.40;0.17;;;19.20;23.50;;;;;;5049222;28;20422;-69
2021/09/13 11:10:56;;;;;;;0.40;0.10;;;19.40;1.00;;;;;;5056393;28;20437;-69
2021/09/13 11:13:21;;;;;;;0.50;0.50;;;18.50;1.00;;;;;;5056394;28;20506;-68
2021/09/13 11:15:48;;;;;;;0.50;0.20;;;18.20;84.60;;;;;;5056225;28;20188;-68
2021/09/13 11:18:34;;;;;;;0.50;0.30;;;17.80;99.90;;;;;;5056046;28;20334;-69
2021/09/13 11:21:21;;;;;;;0.40;0.20;;;17.70;1.00;;;;;;5055958;28;20423;-69
2021/09/13 11:24:03;;;;;;;0.40;0.20;;;18.20;1.00;;;;;;5056331;28;20427;-69
2021/09/13 11:26:37;;;;;;;0.40;0.10;;;18.60;99.90;;;;;;5056028;28;20868;-69
2021/09/13 11:29:02;;;;;;;0.40;0.20;;;19.00;99.90;;;;;;5038874;28;20439;-70
2021/09/13 11:31:34;;;;;;;0.40;0.20;;;18.70;99.90;;;;;;5056016;28;20911;-69
2021/09/13 11:34:01;;;;;;;0.40;0.20;;;18.90;99.90;;;;;;5056126;28;20192;-70
2021/09/13 11:36:28;;;;;;;0.40;0.10;;;19.10;1.00;;;;;;5055615;28;20431;-70
2021/09/13 11:39:06;;;;;;;0.40;0.20;;;19.30;99.90;;;;;;5055689;28;20431;-69
2021/09/13 11:41:33;;;;;;;0.40;0.20;;;19.10;44.10;;;;;;5056001;28;20939;-69
2021/09/13 11:44:08;;;;;;;0.40;0.20;;;19.10;1.00;;;;;;5056296;28;20541;-70
2021/09/13 11:47:03;;;;;;;0.40;0.20;;;19.10;99.90;;;;;;5055620;28;20805;-66
2021/09/13 11:49:32;;;;;;;0.40;0.20;;;19.00;1.00;;;;;;5055348;28;20419;-67
2021/09/13 11:51:58;;;;;;;0.40;0.13;;;18.80;1.00;;;;;;5055644;28;20419;-67
2021/09/13 11:54:24;;;;;;;0.40;0.20;;;19.20;1.00;;;;;;5056041;28;20427;-68
2021/09/13 11:56:50;;;;;;;0.40;0.13;;;19.40;99.90;;;;;;5055868;28;20476;-68
2021/09/13 11:59:25;;;;;;;0.40;0.20;;;19.50;99.90;;;;;;5055325;28;20686;-68
2021/09/13 12:02:02;;;;;;;0.40;0.20;;;19.90;1.00;;;;;;5055529;28;20483;-66
2021/09/13 12:04:29;;;;;;;0.40;0.20;;;20.10;1.00;;;;;;5053533;28;20415;-65
2021/09/13 12:07:24;;;;;;;0.40;0.20;;;20.30;17.70;;;;;;5046399;28;20515;-66
2021/09/13 12:09:52;;;;;;;0.40;0.20;;;20.20;24.90;;;;;;5045660;28;20534;-65
2021/09/13 12:12:23;;;;;;;0.50;0.30;;;20.70;1.00;;;;;;5055835;28;20423;-66
2021/09/13 12:14:52;;;;;;;0.50;0.30;;;20.60;99.90;;;;;;5038922;28;20523;-66
2021/09/13 12:17:19;;;;;;;0.40;0.20;;;20.60;1.00;;;;;;5035240;28;20514;-66
2021/09/13 12:20:10;;;;;;;0.40;0.20;;;20.10;16.10;;;;;;5034935;28;20428;-67
2021/09/13 12:22:36;;;;;;;0.40;0.20;;;20.20;99.90;;;;;;5045101;28;20450;-67
2021/09/13 12:25:10;;;;;;;0.40;0.20;;;20.70;1.00;;;;;;5054973;28;20470;-68
2021/09/13 12:27:44;;;;;;;0.80;0.50;;;20.50;99.90;;;;;;5054748;28;20191;-67
2021/09/13 12:30:20;;;;;;;0.40;0.20;;;20.40;1.00;;;;;;5055071;28;20759;-64
2021/09/13 12:32:59;;;;;;;0.40;0.20;;;20.20;99.90;;;;;;5054973;28;20430;-64
2021/09/13 12:35:33;;;;;;;0.40;0.20;;;19.90;99.90;;;;;;5054752;28;20461;-65
2021/09/13 12:37:59;;;;;;;0.40;0.20;;;20.20;1.00;;;;;;5054613;28;20427;-64
2021/09/13 12:40:24;;;;;;;0.40;0.20;;;20.10;1.00;;;;;;5038062;28;20896;-64
2021/09/13 12:42:54;;;;;;;0.50;0.20;;;20.20;99.90;;;;;;5034982;28;20425;-66
2021/09/13 12:45:25;;;;;;;0.40;0.20;;;20.10;1.00;;;;;;5035091;28;20205;-65
2021/09/13 12:48:04;;;;;;;0.40;0.20;;;20.00;1.00;;;;;;5037656;28;20446;-66
2021/09/13 12:50:40;;;;;;;0.40;0.20;;;20.30;25.10;;;;;;5050468;28;20435;-69
2021/09/13 12:53:17;;;;;;;0.40;0.20;;;20.20;99.90;;;;;;5054866;28;20533;-69
2021/09/13 12:55:43;;;;;;;0.40;0.30;;;20.50;1.00;;;;;;5054903;28;20756;-69
2021/09/13 12:58:32;;;;;;;0.40;0.20;;;21.20;99.90;;;;;;5054234;28;20454;-67
2021/09/13 13:01:02;;;;;;;0.40;0.10;;;21.30;1.00;;;;;;5054705;28;20496;-67
2021/09/13 13:03:29;;;;;;;0.40;0.20;;;20.40;1.00;;;;;;5053891;28;20518;-68